createdAt,value
2022-10-19T00:05:47.493Z,11.13
2022-10-19T00:20:49.399Z,24.95
2022-10-19T00:35:52.793Z,23.67
2022-10-19T00:50:56.453Z,13.60
2022-10-19T01:05:58.431Z,16.67
2022-10-19T01:21:15.237Z,16.27
2022-10-19T01:36:32.120Z,18.05
2022-10-19T01:51:38.273Z,19.73
2022-10-19T02:06:40.483Z,23.38
2022-10-19T02:21:42.532Z,24.50
2022-10-19T02:36:44.608Z,26.13
2022-10-19T02:52:02.247Z,30.60
2022-10-19T03:07:04.130Z,31.65
2022-10-19T03:22:06.399Z,24.52
2022-10-19T03:37:08.753Z,25.33
2022-10-19T03:52:10.855Z,27.20
2022-10-19T04:07:12.728Z,27.80
2022-10-19T04:22:14.601Z,29.63
2022-10-19T04:37:16.498Z,32.25
2022-10-19T04:52:18.405Z,27.73
2022-10-19T05:07:20.404Z,29.42
2022-10-19T05:22:22.263Z,21.88
2022-10-19T05:37:25.746Z,22.80
2022-10-19T05:52:28.375Z,17.20
2022-10-19T06:07:30.289Z,15.80
2022-10-19T06:22:32.183Z,13.00
2022-10-19T06:37:34.089Z,15.02
2022-10-19T06:52:36.589Z,16.05
2022-10-19T07:07:38.818Z,12.38
2022-10-19T07:22:40.742Z,10.25
2022-10-19T07:37:42.623Z,13.57
2022-10-19T07:52:44.471Z,12.20
2022-10-19T08:07:47.035Z,12.07
2022-10-19T08:22:48.887Z,10.65
2022-10-19T08:37:51.256Z,10.13
2022-10-19T08:53:03.896Z,8.00
2022-10-19T09:08:08.150Z,7.68
2022-10-19T09:23:41.183Z,4.30
2022-10-19T09:38:43.047Z,6.78
2022-10-19T09:53:55.340Z,3.20
2022-10-19T10:08:58.980Z,4.60
2022-10-19T10:24:16.988Z,5.97
2022-10-19T10:39:19.127Z,3.90
2022-10-19T10:54:22.469Z,2.85
2022-10-19T11:09:33.668Z,4.05
2022-10-19T11:24:45.087Z,3.03
2022-10-19T11:40:12.958Z,3.17
2022-10-19T11:55:30.560Z,2.20
2022-10-19T12:10:38.518Z,3.10
2022-10-19T12:25:43.873Z,4.93
2022-10-19T12:41:26.691Z,5.18
2022-10-19T12:56:28.606Z,2.35
2022-10-19T13:11:30.925Z,4.53
2022-10-19T13:26:34.803Z,2.55
2022-10-19T13:41:39.431Z,2.30
2022-10-19T13:57:02.931Z,6.03
2022-10-19T14:12:25.950Z,2.17
2022-10-19T14:27:28.414Z,3.75
2022-10-19T14:42:43.135Z,3.13
2022-10-19T14:57:49.233Z,5.07
2022-10-19T15:12:56.681Z,4.18
2022-10-19T15:27:58.752Z,5.75
2022-10-19T15:43:01.191Z,3.38
2022-10-19T15:58:03.051Z,13.73
2022-10-19T16:13:04.943Z,8.13
2022-10-19T16:28:06.822Z,8.60
2022-10-19T16:43:08.946Z,10.05
2022-10-19T16:58:10.779Z,11.02
2022-10-19T17:13:12.820Z,5.88
2022-10-19T17:28:14.858Z,6.03
2022-10-19T17:43:16.777Z,4.22
2022-10-19T17:58:18.901Z,9.32
2022-10-19T18:13:20.812Z,7.88
2022-10-19T18:28:23.174Z,10.75
2022-10-19T18:43:25.518Z,18.67
2022-10-19T18:58:30.679Z,13.85
2022-10-19T19:13:32.533Z,15.40
2022-10-19T19:28:36.602Z,18.27
2022-10-19T19:43:42.528Z,23.48
2022-10-19T19:58:45.316Z,22.52
2022-10-19T20:13:47.202Z,23.60
2022-10-19T20:28:49.819Z,26.30
2022-10-19T20:43:51.849Z,17.45
2022-10-19T20:58:59.096Z,13.32
2022-10-19T21:14:04.105Z,9.73
2022-10-19T21:29:09.570Z,13.85
2022-10-19T21:44:11.814Z,9.30
2022-10-19T21:59:14.364Z,9.98
2022-10-19T22:14:17.323Z,9.55
2022-10-19T22:29:19.273Z,9.57
2022-10-19T22:44:21.151Z,10.02
2022-10-19T22:59:22.943Z,11.80
2022-10-19T23:14:24.844Z,14.93
2022-10-19T23:29:26.788Z,17.70
2022-10-19T23:44:28.611Z,17.23
2022-10-19T23:59:30.420Z,17.25
